Time;durP1;ratioP1;P1;durP2;ratioP2;P2;SDS_P1;SDS_P2;PMS_P1;PMS_P2;Temp;Humidity;BMP_temperature;BMP_pressure;BME280_temperature;BME280_humidity;BME280_pressure;Samples;Min_cycle;Max_cycle;Signal;HPM_P1;HPM_P2
2022/03/03 00:00:39;;;;;;;25.93;18.97;;;-0.10;99.90;;;;;;5048879;28;20563;-65
2022/03/03 00:03:07;;;;;;;23.07;18.33;;;-0.20;99.90;;;;;;5040797;28;20460;-65
2022/03/03 00:05:35;;;;;;;26.50;19.17;;;-0.40;99.90;;;;;;5041680;28;20544;-65
2022/03/03 00:08:02;;;;;;;28.17;18.80;;;-0.50;99.90;;;;;;5043101;28;20564;-66
2022/03/03 00:10:29;;;;;;;25.30;18.87;;;-0.60;99.90;;;;;;5049740;28;20476;-65
2022/03/03 00:12:56;;;;;;;24.47;17.93;;;-0.60;99.90;;;;;;5048248;28;20965;-65
2022/03/03 00:15:23;;;;;;;26.10;19.10;;;-0.60;99.90;;;;;;5046206;28;20449;-67
2022/03/03 00:17:49;;;;;;;27.77;18.30;;;-0.70;99.90;;;;;;5049462;28;20440;-65
2022/03/03 00:20:16;;;;;;;25.10;17.83;;;-0.60;99.90;;;;;;5044060;28;20477;-65
2022/03/03 00:22:45;;;;;;;26.90;17.70;;;-0.50;99.90;;;;;;5042699;28;20519;-65
2022/03/03 00:25:12;;;;;;;28.00;18.37;;;-0.50;99.90;;;;;;5041915;28;20455;-65
2022/03/03 00:27:38;;;;;;;26.97;18.20;;;-0.50;99.90;;;;;;5046680;28;20480;-65
2022/03/03 00:30:06;;;;;;;23.43;19.00;;;-0.50;99.90;;;;;;5046338;28;20503;-65
2022/03/03 00:32:40;;;;;;;34.87;20.87;;;-0.60;99.90;;;;;;5049051;28;20437;-69
2022/03/03 00:35:08;;;;;;;30.60;22.20;;;-0.60;99.90;;;;;;5045589;28;20459;-65
2022/03/03 00:37:34;;;;;;;35.80;25.40;;;-0.70;99.90;;;;;;5048720;28;20448;-65
2022/03/03 00:40:04;;;;;;;36.87;26.23;;;-0.70;99.90;;;;;;5042967;28;20551;-65
2022/03/03 00:42:31;;;;;;;36.10;24.17;;;-0.70;99.90;;;;;;5050997;28;20459;-65
2022/03/03 00:44:58;;;;;;;39.77;27.27;;;-0.80;99.90;;;;;;5047616;28;20450;-65
2022/03/03 00:47:25;;;;;;;35.40;25.27;;;-0.80;99.90;;;;;;5044221;28;20455;-65
2022/03/03 00:49:52;;;;;;;35.87;24.10;;;-0.90;99.90;;;;;;5045664;28;20446;-65
2022/03/03 00:52:19;;;;;;;33.20;24.30;;;-0.90;99.90;;;;;;5046196;28;20538;-65
2022/03/03 00:54:45;;;;;;;31.40;22.90;;;-0.90;99.90;;;;;;5041372;28;20460;-65
2022/03/03 00:57:13;;;;;;;31.77;23.93;;;-1.10;99.90;;;;;;5047905;28;20467;-65
2022/03/03 00:59:43;;;;;;;31.37;22.37;;;-1.10;99.90;;;;;;5049287;28;20801;-65
2022/03/03 01:02:10;;;;;;;36.07;23.20;;;-1.10;99.90;;;;;;5049108;28;20447;-65
2022/03/03 01:04:37;;;;;;;44.50;24.20;;;-1.20;99.90;;;;;;5048669;28;20807;-65
2022/03/03 01:07:06;;;;;;;29.53;22.70;;;-1.10;99.90;;;;;;5049104;28;20444;-65
2022/03/03 01:09:33;;;;;;;33.70;21.80;;;-1.10;99.90;;;;;;5049375;28;20488;-65
2022/03/03 01:12:00;;;;;;;29.90;22.23;;;-1.10;99.90;;;;;;5048916;28;20466;-65
2022/03/03 01:14:28;;;;;;;27.03;21.57;;;-1.10;99.90;;;;;;5048703;28;20459;-65
2022/03/03 01:16:55;;;;;;;31.70;20.97;;;-1.10;99.90;;;;;;5049296;28;20463;-65
2022/03/03 01:19:22;;;;;;;29.43;21.00;;;-1.10;99.90;;;;;;5048724;28;20436;-66
2022/03/03 01:21:49;;;;;;;28.23;22.07;;;-1.10;99.90;;;;;;5049143;28;20467;-65
2022/03/03 01:24:15;;;;;;;26.50;20.03;;;-1.20;99.90;;;;;;5048817;28;20436;-65
2022/03/03 01:26:42;;;;;;;28.97;20.43;;;-1.20;99.90;;;;;;5048438;28;20440;-66
2022/03/03 01:29:09;;;;;;;31.67;20.23;;;-1.20;99.90;;;;;;5048830;28;20483;-65
2022/03/03 01:31:38;;;;;;;32.07;22.87;;;-1.20;99.90;;;;;;5048518;28;20476;-65
2022/03/03 01:34:06;;;;;;;37.17;22.40;;;-1.20;99.90;;;;;;5048315;28;20448;-65
2022/03/03 01:36:33;;;;;;;33.20;22.37;;;-1.20;99.90;;;;;;5048785;28;20917;-65
2022/03/03 01:39:00;;;;;;;36.33;21.93;;;-1.20;99.90;;;;;;5049026;28;20545;-65
2022/03/03 01:41:27;;;;;;;31.17;22.70;;;-1.30;99.90;;;;;;5048801;28;20468;-65
2022/03/03 01:43:54;;;;;;;31.43;21.83;;;-1.20;99.90;;;;;;5048992;28;20467;-65
2022/03/03 01:46:20;;;;;;;30.97;22.50;;;-1.10;99.90;;;;;;5048961;28;20443;-65
2022/03/03 01:48:49;;;;;;;27.80;20.43;;;-1.10;99.90;;;;;;5052918;28;20981;-65
2022/03/03 01:51:16;;;;;;;28.63;19.80;;;-1.10;99.90;;;;;;5052782;28;20466;-65
2022/03/03 01:53:43;;;;;;;30.33;20.50;;;-1.20;99.90;;;;;;5053001;28;20443;-65
2022/03/03 01:56:10;;;;;;;30.03;20.87;;;-1.20;99.90;;;;;;5052356;28;20443;-65
2022/03/03 01:58:38;;;;;;;28.60;22.27;;;-1.20;99.90;;;;;;5047453;28;20466;-65
2022/03/03 02:01:05;;;;;;;27.90;20.97;;;-1.20;99.90;;;;;;5052669;28;20493;-65
2022/03/03 02:03:32;;;;;;;24.80;20.37;;;-1.30;99.90;;;;;;5052658;28;20448;-65
2022/03/03 02:06:00;;;;;;;31.03;20.37;;;-1.40;99.90;;;;;;5052434;28;20435;-67
2022/03/03 02:08:28;;;;;;;29.17;19.63;;;-1.40;99.90;;;;;;5050363;28;20509;-65
2022/03/03 02:10:55;;;;;;;28.57;21.27;;;-1.40;99.90;;;;;;5052165;28;20472;-68
2022/03/03 02:13:22;;;;;;;29.77;22.13;;;-1.30;99.90;;;;;;5052010;28;20489;-65
2022/03/03 02:15:51;;;;;;;28.13;19.57;;;-1.40;99.90;;;;;;5053081;28;20786;-65
2022/03/03 02:18:17;;;;;;;29.07;21.43;;;-1.40;99.90;;;;;;5053195;28;20837;-65
2022/03/03 02:20:46;;;;;;;33.30;20.97;;;-1.50;99.90;;;;;;5053984;28;20532;-65
2022/03/03 02:23:13;;;;;;;30.50;21.17;;;-1.60;99.90;;;;;;5054072;28;20541;-65
2022/03/03 02:25:40;;;;;;;30.67;21.23;;;-1.70;99.90;;;;;;5053705;28;20534;-65
2022/03/03 02:28:07;;;;;;;33.27;21.13;;;-1.60;99.90;;;;;;5054090;28;20468;-65
2022/03/03 02:30:34;;;;;;;29.03;20.03;;;-1.50;99.90;;;;;;5053862;28;20558;-65
2022/03/03 02:33:01;;;;;;;28.40;20.57;;;-1.50;99.90;;;;;;5053879;28;20482;-65
2022/03/03 02:35:29;;;;;;;31.87;21.77;;;-1.50;99.90;;;;;;5053360;28;20462;-65
2022/03/03 02:37:58;;;;;;;30.67;21.00;;;-1.60;99.90;;;;;;5053448;28;20462;-65
2022/03/03 02:40:24;;;;;;;32.77;22.43;;;-1.70;99.90;;;;;;5053323;28;20467;-65
2022/03/03 02:42:53;;;;;;;33.03;20.47;;;-1.70;99.90;;;;;;5053447;28;20466;-65
2022/03/03 02:45:21;;;;;;;30.80;21.33;;;-1.70;99.90;;;;;;5053049;28;20474;-65
2022/03/03 02:47:49;;;;;;;26.63;20.00;;;-1.80;99.90;;;;;;5053336;28;20862;-65
2022/03/03 02:50:18;;;;;;;30.80;21.80;;;-1.80;99.90;;;;;;5053053;28;20507;-65
2022/03/03 02:52:44;;;;;;;32.53;22.40;;;-1.70;99.90;;;;;;5052893;28;20450;-65
2022/03/03 02:55:13;;;;;;;29.83;22.60;;;-1.70;99.90;;;;;;5053064;28;20451;-63
2022/03/03 02:57:55;;;;;;;36.67;21.13;;;-1.70;99.90;;;;;;5052456;28;20526;-64
2022/03/03 03:00:23;;;;;;;27.23;21.73;;;-1.60;99.90;;;;;;5052982;28;20810;-64
2022/03/03 03:02:50;;;;;;;32.83;21.63;;;-1.60;99.90;;;;;;5052613;28;20451;-64
2022/03/03 03:05:18;;;;;;;26.77;21.17;;;-1.60;99.90;;;;;;5052509;28;20531;-64
2022/03/03 03:07:45;;;;;;;34.23;24.97;;;-1.70;99.90;;;;;;5052694;28;20439;-64
2022/03/03 03:10:14;;;;;;;28.63;22.03;;;-1.70;99.90;;;;;;5052438;28;20492;-64
2022/03/03 03:12:41;;;;;;;32.53;21.70;;;-1.70;99.90;;;;;;5052781;28;20458;-64
2022/03/03 03:15:08;;;;;;;30.70;20.77;;;-1.80;99.90;;;;;;5052606;28;20452;-64
2022/03/03 03:17:35;;;;;;;28.93;21.07;;;-1.90;99.90;;;;;;5052558;28;20796;-64
2022/03/03 03:20:02;;;;;;;26.57;19.93;;;-1.90;99.90;;;;;;5052438;28;20491;-64
2022/03/03 03:22:29;;;;;;;28.63;20.87;;;-1.90;99.90;;;;;;5052697;28;20880;-64
2022/03/03 03:24:56;;;;;;;30.20;22.40;;;-2.00;99.90;;;;;;5052233;28;20603;-64
2022/03/03 03:27:24;;;;;;;28.40;20.87;;;-1.90;99.90;;;;;;5052491;28;20472;-64
2022/03/03 03:29:51;;;;;;;28.73;20.63;;;-1.90;99.90;;;;;;5052298;28;20486;-63
2022/03/03 03:32:18;;;;;;;30.50;19.87;;;-1.90;99.90;;;;;;5052165;28;20467;-64
2022/03/03 03:34:45;;;;;;;30.70;21.07;;;-1.90;99.90;;;;;;5051771;28;20543;-64
2022/03/03 03:37:12;;;;;;;29.27;21.37;;;-2.00;99.90;;;;;;5052433;28;20460;-64
2022/03/03 03:39:39;;;;;;;29.20;21.33;;;-1.90;99.90;;;;;;5051878;28;20531;-64
2022/03/03 03:42:06;;;;;;;28.83;20.47;;;-1.90;99.90;;;;;;5052106;28;20474;-64
2022/03/03 03:44:35;;;;;;;27.37;20.70;;;-1.90;99.90;;;;;;5051783;28;20812;-64
2022/03/03 03:47:02;;;;;;;25.80;18.93;;;-1.90;99.90;;;;;;5051862;28;20444;-63
2022/03/03 03:49:29;;;;;;;28.93;19.37;;;-2.00;99.90;;;;;;5051851;28;21031;-63
2022/03/03 03:51:56;;;;;;;24.47;19.30;;;-2.10;99.90;;;;;;5051915;28;20571;-65
2022/03/03 03:54:23;;;;;;;28.57;19.20;;;-2.10;99.90;;;;;;5051554;28;20454;-66
2022/03/03 03:56:50;;;;;;;26.00;19.53;;;-2.10;99.90;;;;;;5051781;28;20443;-63
2022/03/03 03:59:16;;;;;;;25.47;19.90;;;-2.10;99.90;;;;;;5051605;28;20460;-66
2022/03/03 04:01:45;;;;;;;25.00;18.60;;;-2.10;99.90;;;;;;5051465;28;20547;-63
2022/03/03 04:04:12;;;;;;;29.83;22.23;;;-2.10;99.90;;;;;;5051386;28;20528;-64
2022/03/03 04:06:38;;;;;;;31.20;21.47;;;-2.10;99.90;;;;;;5051495;28;20543;-63
2022/03/03 04:09:06;;;;;;;25.93;19.07;;;-2.10;99.90;;;;;;5050758;28;20908;-64
2022/03/03 04:11:32;;;;;;;29.97;20.20;;;-2.10;99.90;;;;;;5051810;28;20486;-63
2022/03/03 04:13:59;;;;;;;25.30;19.57;;;-2.10;99.90;;;;;;5051360;28;20537;-66
2022/03/03 04:16:27;;;;;;;23.60;18.73;;;-2.10;99.90;;;;;;5051225;28;20515;-63
2022/03/03 04:18:55;;;;;;;27.87;20.60;;;-2.20;99.90;;;;;;5051766;28;20495;-63
2022/03/03 04:21:22;;;;;;;27.23;20.00;;;-2.20;99.90;;;;;;5051514;28;20518;-63
2022/03/03 04:23:49;;;;;;;29.87;20.03;;;-2.20;99.90;;;;;;5050934;28;20448;-66
2022/03/03 04:26:16;;;;;;;30.67;21.93;;;-2.10;99.90;;;;;;5050900;28;20486;-63
2022/03/03 04:28:43;;;;;;;28.90;20.37;;;-2.00;99.90;;;;;;5050945;28;20480;-63
2022/03/03 04:31:10;;;;;;;25.63;18.80;;;-2.00;99.90;;;;;;5050643;28;20486;-63
2022/03/03 04:33:37;;;;;;;27.23;20.37;;;-2.00;99.90;;;;;;5050209;28;20534;-63
2022/03/03 04:36:06;;;;;;;33.07;21.57;;;-2.10;99.90;;;;;;5050782;28;20483;-63
2022/03/03 04:38:33;;;;;;;26.70;20.07;;;-2.10;99.90;;;;;;5051074;28;20448;-65
2022/03/03 04:41:00;;;;;;;26.67;18.87;;;-2.10;99.90;;;;;;5050634;28;20468;-64
2022/03/03 04:43:27;;;;;;;28.50;22.00;;;-2.10;99.90;;;;;;5050042;28;20502;-65
2022/03/03 04:45:54;;;;;;;29.90;20.00;;;-2.00;99.90;;;;;;5050408;28;20448;-64
2022/03/03 04:48:21;;;;;;;29.33;19.87;;;-2.00;99.90;;;;;;5051011;28;20530;-65
2022/03/03 04:50:48;;;;;;;26.80;20.33;;;-2.00;99.90;;;;;;5050902;28;20502;-64
2022/03/03 04:53:16;;;;;;;24.57;18.27;;;-2.10;99.90;;;;;;5050820;28;20483;-64
2022/03/03 04:55:43;;;;;;;28.90;20.60;;;-2.20;99.90;;;;;;5050395;28;20527;-65
2022/03/03 04:58:10;;;;;;;30.37;21.33;;;-2.20;99.90;;;;;;5050642;28;20448;-65
2022/03/03 05:00:37;;;;;;;32.07;20.30;;;-2.30;99.90;;;;;;5050211;28;20569;-66
2022/03/03 05:03:04;;;;;;;31.90;22.40;;;-2.20;99.90;;;;;;5050650;28;20440;-65
2022/03/03 05:05:31;;;;;;;29.70;19.30;;;-2.20;99.90;;;;;;5049939;28;20451;-65
2022/03/03 05:07:58;;;;;;;25.70;19.67;;;-2.20;99.90;;;;;;5050299;28;20521;-64
2022/03/03 05:10:26;;;;;;;27.77;21.13;;;-2.20;99.90;;;;;;5049882;28;20508;-64
2022/03/03 05:12:53;;;;;;;33.30;19.60;;;-2.10;99.90;;;;;;5050325;28;20440;-64
2022/03/03 05:15:20;;;;;;;27.73;21.23;;;-2.10;99.90;;;;;;5050399;28;20448;-65
2022/03/03 05:17:47;;;;;;;29.53;21.07;;;-2.10;99.90;;;;;;5050115;28;20448;-65
2022/03/03 05:20:14;;;;;;;35.70;23.47;;;-2.10;99.90;;;;;;5049996;28;20553;-65
2022/03/03 05:22:41;;;;;;;29.37;21.03;;;-2.00;99.90;;;;;;5049948;28;20448;-65
2022/03/03 05:25:10;;;;;;;32.67;21.83;;;-2.00;99.90;;;;;;5049925;28;20448;-65
2022/03/03 05:27:39;;;;;;;36.10;22.80;;;-1.80;99.90;;;;;;5050091;28;20452;-65
2022/03/03 05:30:09;;;;;;;28.00;20.23;;;-1.70;99.90;;;;;;5049661;28;20492;-64
2022/03/03 05:32:36;;;;;;;29.23;22.60;;;-1.60;99.90;;;;;;5049920;28;20448;-64
2022/03/03 05:35:03;;;;;;;32.40;22.40;;;-1.60;99.90;;;;;;5049874;28;20448;-65
2022/03/03 05:37:30;;;;;;;32.37;21.70;;;-1.50;99.90;;;;;;5050129;28;20456;-65
2022/03/03 05:39:57;;;;;;;30.17;21.50;;;-1.60;99.90;;;;;;5050086;28;20458;-65
2022/03/03 05:42:24;;;;;;;36.43;20.80;;;-1.70;99.90;;;;;;5049860;28;20542;-64
2022/03/03 05:44:53;;;;;;;28.43;21.40;;;-1.70;99.90;;;;;;5049761;28;20452;-64
2022/03/03 05:47:21;;;;;;;32.30;20.80;;;-1.70;99.90;;;;;;5049790;28;20833;-65
2022/03/03 05:49:50;;;;;;;30.03;19.93;;;-1.80;99.90;;;;;;5049671;28;20480;-64
2022/03/03 05:52:17;;;;;;;29.40;21.93;;;-1.80;99.90;;;;;;5049822;28;20462;-65
2022/03/03 05:54:44;;;;;;;29.43;18.77;;;-1.80;99.90;;;;;;5049409;28;20498;-65
2022/03/03 05:57:18;;;;;;;31.27;21.53;;;-1.90;99.90;;;;;;5049951;28;20478;-65
2022/03/03 05:59:48;;;;;;;27.10;19.90;;;-1.90;99.90;;;;;;5049743;28;20440;-66
2022/03/03 06:02:19;;;;;;;30.43;20.20;;;-2.10;99.90;;;;;;5049274;28;20444;-65
2022/03/03 06:04:48;;;;;;;30.77;19.03;;;-2.10;99.90;;;;;;5049025;28;20450;-65
2022/03/03 06:07:23;;;;;;;26.97;18.80;;;-2.00;99.90;;;;;;5049352;28;20459;-65
2022/03/03 06:09:52;;;;;;;28.37;19.37;;;-2.00;99.90;;;;;;5048833;28;20686;-64
2022/03/03 06:12:23;;;;;;;28.63;20.80;;;-2.10;99.90;;;;;;5049243;28;20450;-64
2022/03/03 06:14:54;;;;;;;33.80;20.97;;;-2.10;99.90;;;;;;5049299;28;20443;-64
2022/03/03 06:17:24;;;;;;;24.20;20.30;;;-2.10;99.90;;;;;;5049214;28;20872;-65
2022/03/03 06:19:52;;;;;;;32.23;21.90;;;-2.00;99.90;;;;;;5049171;28;20440;-64
2022/03/03 06:22:20;;;;;;;28.67;20.60;;;-2.00;99.90;;;;;;5049377;28;20447;-64
2022/03/03 06:24:47;;;;;;;30.17;21.43;;;-1.90;99.90;;;;;;5048880;28;21195;-64
2022/03/03 06:27:14;;;;;;;27.27;19.97;;;-1.90;99.90;;;;;;5049328;28;20483;-64
2022/03/03 06:29:41;;;;;;;26.80;19.83;;;-2.00;99.90;;;;;;5048994;28;20512;-64
2022/03/03 06:32:08;;;;;;;26.67;20.07;;;-2.00;99.90;;;;;;5049210;28;20562;-64
2022/03/03 06:34:37;;;;;;;28.40;19.40;;;-2.00;99.90;;;;;;5052697;28;20448;-64
2022/03/03 06:37:04;;;;;;;26.63;19.70;;;-1.90;99.90;;;;;;5053146;28;20444;-64
2022/03/03 06:39:31;;;;;;;28.10;20.10;;;-1.90;99.90;;;;;;5052726;28;20440;-64
2022/03/03 06:41:58;;;;;;;28.40;21.10;;;-1.90;99.90;;;;;;5052611;28;20475;-64
2022/03/03 06:44:25;;;;;;;28.00;21.17;;;-1.80;99.90;;;;;;5052315;28;20539;-65
2022/03/03 06:46:52;;;;;;;34.83;20.83;;;-1.70;99.90;;;;;;5052484;28;20486;-65
2022/03/03 06:49:19;;;;;;;29.80;20.27;;;-1.70;99.90;;;;;;5052671;28;20451;-65
2022/03/03 06:51:49;;;;;;;28.97;19.23;;;-1.70;99.90;;;;;;5052521;28;20464;-65
2022/03/03 06:54:19;;;;;;;27.50;21.27;;;-1.70;99.90;;;;;;5052389;28;20454;-64
2022/03/03 06:56:48;;;;;;;30.70;20.70;;;-1.60;99.90;;;;;;5052339;28;20874;-65
2022/03/03 06:59:17;;;;;;;29.57;21.90;;;-1.60;99.90;;;;;;5052221;28;20886;-65
2022/03/03 07:01:47;;;;;;;31.63;23.03;;;-1.40;99.90;;;;;;5052468;28;20464;-65
2022/03/03 07:04:15;;;;;;;37.00;23.87;;;-1.30;99.90;;;;;;5052046;28;20454;-64
2022/03/03 07:06:43;;;;;;;33.93;24.10;;;-1.10;99.90;;;;;;5052153;28;20452;-65
2022/03/03 07:09:12;;;;;;;30.80;21.60;;;-1.00;99.90;;;;;;5052126;28;20824;-65
2022/03/03 07:11:41;;;;;;;29.80;22.93;;;-0.80;99.90;;;;;;5052029;28;20468;-65
2022/03/03 07:14:08;;;;;;;30.77;22.40;;;-0.60;99.90;;;;;;5051452;28;20448;-65
2022/03/03 07:16:42;;;;;;;29.30;20.73;;;-0.50;99.90;;;;;;5052120;28;20526;-64
2022/03/03 07:19:17;;;;;;;32.17;21.90;;;-0.50;99.90;;;;;;5051931;28;20471;-65
2022/03/03 07:21:59;;;;;;;32.90;21.77;;;-0.40;99.90;;;;;;5052137;28;20500;-65
2022/03/03 07:24:31;;;;;;;28.00;20.80;;;-0.40;99.90;;;;;;5051360;28;20458;-65
2022/03/03 07:27:00;;;;;;;27.83;20.63;;;-0.30;99.90;;;;;;5051919;28;20558;-65
2022/03/03 07:29:31;;;;;;;27.93;20.07;;;-0.20;99.90;;;;;;5051555;28;20446;-65
2022/03/03 07:32:00;;;;;;;27.50;20.40;;;-0.10;99.90;;;;;;5051500;28;20567;-65
2022/03/03 07:34:31;;;;;;;31.70;23.10;;;0.10;99.90;;;;;;5051211;28;20440;-65
2022/03/03 07:37:04;;;;;;;32.13;22.27;;;0.30;99.90;;;;;;5051339;28;20448;-65
2022/03/03 07:39:40;;;;;;;29.67;21.13;;;0.50;99.90;;;;;;5051568;28;20949;-65
2022/03/03 07:42:10;;;;;;;30.37;20.93;;;0.70;99.90;;;;;;5051554;28;20467;-65
2022/03/03 07:44:37;;;;;;;24.70;18.77;;;0.70;99.90;;;;;;5050105;28;20534;-64
2022/03/03 07:47:06;;;;;;;28.00;19.50;;;0.70;99.90;;;;;;5051346;28;20470;-65
2022/03/03 07:49:33;;;;;;;25.23;19.23;;;0.70;99.90;;;;;;5051528;28;20475;-65
2022/03/03 07:52:00;;;;;;;33.83;22.43;;;0.70;99.90;;;;;;5051352;28;20551;-65
2022/03/03 07:54:27;;;;;;;26.27;20.67;;;0.80;99.90;;;;;;5051036;28;20531;-65
2022/03/03 07:56:57;;;;;;;24.37;19.77;;;0.90;99.90;;;;;;5051478;28;20452;-65
2022/03/03 07:59:29;;;;;;;26.73;20.03;;;1.00;99.90;;;;;;5051398;28;20444;-65
2022/03/03 08:01:58;;;;;;;24.33;19.97;;;1.10;99.90;;;;;;5053651;28;20495;-64
2022/03/03 08:04:29;;;;;;;29.90;20.57;;;1.20;99.90;;;;;;5056036;28;20452;-66
2022/03/03 08:07:00;;;;;;;27.37;19.70;;;1.20;99.90;;;;;;5054660;28;20829;-68
2022/03/03 08:09:29;;;;;;;28.10;20.47;;;1.40;99.90;;;;;;5054051;28;21060;-68
2022/03/03 08:11:59;;;;;;;30.50;21.33;;;1.50;99.90;;;;;;5054026;28;21323;-66
2022/03/03 08:14:26;;;;;;;23.97;19.47;;;1.60;99.90;;;;;;5052309;28;20934;-66
2022/03/03 08:16:53;;;;;;;26.73;20.07;;;1.70;99.90;;;;;;5052210;28;20462;-66
2022/03/03 08:19:22;;;;;;;25.93;20.23;;;1.80;99.90;;;;;;5051401;28;20479;-66
2022/03/03 08:21:49;;;;;;;24.90;18.93;;;1.90;99.90;;;;;;5051447;28;20925;-66
2022/03/03 08:24:16;;;;;;;25.10;19.73;;;2.10;99.90;;;;;;5050998;28;20455;-66
2022/03/03 08:26:45;;;;;;;28.40;20.13;;;2.20;99.90;;;;;;5050639;28;20449;-65
2022/03/03 08:29:14;;;;;;;26.27;20.23;;;2.30;99.90;;;;;;5050613;28;20451;-65
2022/03/03 08:31:42;;;;;;;26.07;20.80;;;2.40;99.90;;;;;;5050162;28;20587;-65
2022/03/03 08:34:16;;;;;;;28.27;21.50;;;2.60;99.90;;;;;;5051559;28;20530;-68
2022/03/03 08:36:46;;;;;;;26.37;20.27;;;2.80;99.90;;;;;;5047264;28;20539;-65
2022/03/03 08:39:15;;;;;;;28.87;19.60;;;3.10;99.90;;;;;;5032151;28;20449;-65
2022/03/03 08:41:44;;;;;;;25.43;20.63;;;3.30;99.90;;;;;;5030318;28;20480;-65
2022/03/03 08:44:13;;;;;;;28.30;21.20;;;3.50;99.90;;;;;;5030227;28;21086;-65
2022/03/03 08:46:42;;;;;;;28.17;20.97;;;3.70;99.90;;;;;;5030491;28;20453;-65
2022/03/03 08:49:11;;;;;;;23.53;19.03;;;3.80;99.90;;;;;;5030244;28;20445;-64
2022/03/03 08:51:39;;;;;;;24.50;19.10;;;3.90;99.90;;;;;;5030309;28;20498;-65
2022/03/03 08:54:07;;;;;;;22.30;17.60;;;4.20;99.90;;;;;;5034707;28;20470;-70
2022/03/03 08:56:34;;;;;;;21.53;19.20;;;4.30;99.90;;;;;;5040678;28;20510;-69
2022/03/03 08:59:01;;;;;;;21.07;17.73;;;4.50;99.90;;;;;;5038252;28;20444;-70
2022/03/03 09:01:30;;;;;;;24.80;18.77;;;4.70;99.90;;;;;;5036989;28;20483;-65
2022/03/03 09:03:58;;;;;;;22.93;19.10;;;4.90;99.90;;;;;;5041960;28;20460;-65
2022/03/03 09:06:25;;;;;;;24.00;20.77;;;5.10;99.90;;;;;;5043232;28;20497;-65
2022/03/03 09:08:52;;;;;;;27.47;20.37;;;5.60;99.90;;;;;;5033566;28;20453;-66
2022/03/03 09:11:20;;;;;;;24.33;18.97;;;5.80;99.90;;;;;;5042651;28;20518;-66
2022/03/03 09:13:47;;;;;;;24.67;18.37;;;5.90;99.90;;;;;;5049922;28;20906;-65
2022/03/03 09:16:16;;;;;;;24.60;19.03;;;6.30;99.90;;;;;;5049245;28;20458;-66
2022/03/03 09:18:45;;;;;;;25.57;19.53;;;6.80;99.90;;;;;;5049811;28;20448;-65
2022/03/03 09:21:12;;;;;;;25.70;19.60;;;6.90;99.90;;;;;;5049633;28;20464;-65
2022/03/03 09:23:39;;;;;;;23.73;19.27;;;7.40;99.90;;;;;;5049724;28;20528;-65
2022/03/03 09:26:06;;;;;;;23.20;18.73;;;8.00;99.90;;;;;;5049569;28;20459;-65
2022/03/03 09:28:33;;;;;;;20.50;18.20;;;8.00;99.90;;;;;;5047230;28;20502;-64
2022/03/03 09:31:00;;;;;;;25.03;19.90;;;7.90;99.90;;;;;;5041795;28;20494;-64
2022/03/03 09:33:27;;;;;;;22.10;18.97;;;8.10;99.90;;;;;;5043242;28;21026;-66
2022/03/03 09:35:56;;;;;;;24.17;18.90;;;8.40;99.90;;;;;;5039819;28;20452;-70
2022/03/03 09:38:23;;;;;;;26.50;20.20;;;8.10;99.90;;;;;;5041910;28;20527;-64
2022/03/03 09:40:50;;;;;;;21.83;19.70;;;8.30;99.90;;;;;;5044936;28;20837;-64
2022/03/03 09:43:17;;;;;;;22.17;18.07;;;8.40;99.90;;;;;;5045380;28;20843;-65
2022/03/03 09:45:44;;;;;;;23.60;19.37;;;8.70;99.90;;;;;;5035663;28;20452;-64
2022/03/03 09:48:11;;;;;;;22.43;18.87;;;8.90;99.80;;;;;;5038752;28;20441;-64
2022/03/03 09:50:41;;;;;;;21.00;18.20;;;9.40;98.80;;;;;;5036700;28;20520;-64
2022/03/03 09:53:11;;;;;;;21.50;18.00;;;9.80;99.00;;;;;;5040943;28;20525;-65
2022/03/03 09:55:38;;;;;;;20.87;17.70;;;10.30;96.80;;;;;;5034672;28;20458;-64
2022/03/03 09:58:06;;;;;;;24.67;19.60;;;10.30;95.90;;;;;;5035032;28;20950;-64
2022/03/03 10:00:36;;;;;;;22.83;19.00;;;10.20;95.50;;;;;;5035290;28;20468;-64
2022/03/03 10:03:08;;;;;;;23.37;20.03;;;10.50;95.70;;;;;;5046497;28;20449;-64
2022/03/03 10:05:37;;;;;;;20.50;18.40;;;10.70;93.70;;;;;;5042989;28;20507;-64
2022/03/03 10:08:07;;;;;;;21.83;19.50;;;10.60;93.40;;;;;;5033945;28;20441;-64
2022/03/03 10:10:38;;;;;;;19.30;17.30;;;10.40;94.10;;;;;;5038466;28;20547;-64
2022/03/03 10:13:06;;;;;;;20.20;16.80;;;10.60;93.60;;;;;;5041785;28;20448;-65
2022/03/03 10:15:35;;;;;;;19.60;17.60;;;10.90;94.00;;;;;;5040533;28;20504;-66
2022/03/03 10:18:09;;;;;;;20.40;18.30;;;11.10;91.90;;;;;;5038689;28;20475;-66
2022/03/03 10:20:48;;;;;;;18.07;16.27;;;11.60;92.10;;;;;;5036875;28;20525;-66
2022/03/03 10:23:15;;;;;;;18.77;16.80;;;12.00;91.10;;;;;;5039532;28;20536;-66
2022/03/03 10:25:44;;;;;;;17.70;15.80;;;12.40;90.70;;;;;;5039080;28;21040;-66
2022/03/03 10:28:15;;;;;;;23.47;19.17;;;12.80;89.40;;;;;;5043143;28;21214;-66
2022/03/03 10:30:53;;;;;;;19.50;17.40;;;13.00;86.60;;;;;;5047101;28;20487;-66
2022/03/03 10:33:22;;;;;;;19.53;17.50;;;13.10;84.30;;;;;;5035414;28;21028;-66
2022/03/03 10:36:08;;;;;;;20.13;17.60;;;13.40;84.80;;;;;;5036364;28;20433;-66
2022/03/03 10:38:46;;;;;;;19.80;17.20;;;13.90;83.80;;;;;;5041974;28;20444;-63
2022/03/03 10:41:30;;;;;;;36.87;17.83;;;13.70;80.70;;;;;;5041925;28;20468;-64
2022/03/03 10:43:57;;;;;;;20.83;18.30;;;14.20;82.10;;;;;;5035861;28;20523;-65
2022/03/03 10:46:24;;;;;;;19.20;17.20;;;14.70;80.30;;;;;;5032999;28;20520;-64
2022/03/03 10:48:51;;;;;;;20.57;17.27;;;15.30;78.70;;;;;;5031398;28;20428;-64
2022/03/03 10:51:21;;;;;;;26.70;19.00;;;15.80;78.60;;;;;;5031724;28;20562;-64
2022/03/03 10:53:47;;;;;;;20.30;17.23;;;16.30;74.20;;;;;;5039924;28;20883;-64
2022/03/03 10:56:17;;;;;;;19.43;17.33;;;15.50;70.90;;;;;;5047379;28;20443;-66
2022/03/03 10:58:53;;;;;;;19.90;17.90;;;15.40;75.60;;;;;;5048343;28;20497;-64
2022/03/03 11:01:22;;;;;;;22.47;18.27;;;15.50;72.10;;;;;;5039901;28;20448;-64
2022/03/03 11:03:50;;;;;;;23.53;19.33;;;15.30;70.70;;;;;;5032980;28;20458;-64
2022/03/03 11:06:22;;;;;;;20.27;18.10;;;14.70;73.10;;;;;;5031246;28;20437;-64
2022/03/03 11:08:50;;;;;;;19.67;17.67;;;14.00;75.40;;;;;;5036753;28;20445;-64
2022/03/03 11:11:18;;;;;;;22.00;18.60;;;14.20;77.10;;;;;;5031766;28;20841;-64
2022/03/03 11:13:47;;;;;;;22.17;19.00;;;14.90;73.90;;;;;;5035007;28;20448;-64
2022/03/03 11:16:16;;;;;;;20.00;18.00;;;15.50;71.60;;;;;;5032088;28;20971;-64
2022/03/03 11:18:43;;;;;;;19.67;17.60;;;15.90;68.00;;;;;;5044294;28;20444;-64
2022/03/03 11:21:10;;;;;;;21.17;19.00;;;15.50;68.10;;;;;;5038015;28;20539;-64
2022/03/03 11:23:42;;;;;;;21.67;19.30;;;15.40;68.20;;;;;;5031888;28;20445;-64
2022/03/03 11:26:11;;;;;;;20.33;17.70;;;16.20;69.40;;;;;;5030554;28;20463;-65
2022/03/03 11:28:39;;;;;;;19.97;17.63;;;16.90;66.70;;;;;;5030817;28;20907;-64
2022/03/03 11:31:30;;;;;;;21.27;19.00;;;17.00;62.80;;;;;;4993130;28;1097435;-64
2022/03/03 11:34:27;;;;;;;20.27;18.17;;;16.30;62.40;;;;;;5031453;28;20510;-64
2022/03/03 11:37:03;;;;;;;18.00;16.10;;;16.40;62.10;;;;;;5031775;28;20449;-65
2022/03/03 11:39:42;;;;;;;21.33;18.73;;;15.90;61.60;;;;;;5031781;28;20452;-65
2022/03/03 11:42:31;;;;;;;18.97;16.97;;;15.40;60.90;;;;;;5036130;28;20543;-64
2022/03/03 11:45:01;;;;;;;18.63;16.73;;;15.50;63.00;;;;;;5046068;28;20443;-65
2022/03/03 11:47:31;;;;;;;19.87;17.87;;;16.10;61.30;;;;;;5047698;28;20982;-65
2022/03/03 11:50:04;;;;;;;20.77;17.67;;;16.70;60.40;;;;;;5047333;28;20452;-65
2022/03/03 11:52:31;;;;;;;26.20;18.23;;;16.90;60.30;;;;;;5045063;28;20491;-65
2022/03/03 11:55:00;;;;;;;23.10;19.53;;;17.60;62.70;;;;;;5042259;28;20538;-65
2022/03/03 11:57:28;;;;;;;22.97;20.67;;;18.50;59.60;;;;;;5045081;28;21141;-70
2022/03/03 12:00:00;;;;;;;23.33;20.97;;;19.40;57.40;;;;;;5046345;28;20945;-65
2022/03/03 12:02:34;;;;;;;23.30;21.00;;;18.30;55.80;;;;;;5047172;28;20786;-64
2022/03/03 12:05:36;;;;;;;23.97;21.50;;;16.40;56.70;;;;;;5047020;28;20444;-64
2022/03/03 12:08:05;;;;;;;23.70;21.17;;;16.50;59.70;;;;;;5046616;28;20448;-64
2022/03/03 12:10:33;;;;;;;23.33;21.00;;;17.50;58.50;;;;;;5045932;28;20854;-65
2022/03/03 12:13:26;;;;;;;25.57;22.77;;;18.50;59.10;;;;;;5046590;28;20484;-65
2022/03/03 12:16:12;;;;;;;25.50;22.97;;;19.00;56.40;;;;;;5046854;28;20468;-64
2022/03/03 12:18:41;;;;;;;25.97;23.17;;;18.60;56.50;;;;;;5046957;28;20440;-64
2022/03/03 12:21:28;;;;;;;26.83;21.67;;;19.00;57.10;;;;;;5046314;28;20466;-65
2022/03/03 12:24:33;;;;;;;24.43;21.93;;;19.20;56.40;;;;;;5046091;28;20472;-64
2022/03/03 12:27:15;;;;;;;25.20;22.70;;;18.90;56.00;;;;;;5044716;28;20518;-66
2022/03/03 12:29:53;;;;;;;23.37;20.83;;;18.00;55.90;;;;;;5043761;28;20517;-67
2022/03/03 12:32:36;;;;;;;24.73;22.10;;;17.80;58.60;;;;;;5043284;28;20480;-64
2022/03/03 12:35:09;;;;;;;26.53;22.07;;;18.50;56.60;;;;;;5044045;28;20566;-70
2022/03/03 12:37:43;;;;;;;25.53;22.80;;;17.50;57.80;;;;;;5045843;28;20443;-63